Monroe County Airport
KBMG : now visible

Airfield :











YOU CAN JOIN US ON...

 
LOGIN :

Register | Disclaimer

   EN    FR    IT 

 









Legend :    VFR   Marginal VFR   IFR   Intensive IFR   Very Intensive IFR
Visi :
Ceiling :
>= 8 km
>= 3000ft
5 to 8 km
1000 to 3000 ft
1500m to 5 km
500 to 1000 ft
800 to 1500m
200 to 500 ft
< 800m
< 200 ft
Symbols :   Thunderstorms  Fog  Heavy snow  Heavy precipitations  Wind > 20 kt






- Airport Elevation : 846 ft
- IATA code : BMG


KBMG - Monroe County

CURRENT METAR :
  • 200353Z AUTO 33006KT 8SM OVC016 M10/M14 A3047 RMK AO2 SNE53 SLP335 P0000 T11001139

EXPIRED METARs :
  • 200253Z AUTO 29008KT 6SM -SN OVC016 M10/M14 A3046 RMK AO2 SLP332 P0000 60000 T11001139 53005
  • 200153Z 31006G15KT 8SM -SN OVC016 M10/M14 A3045 RMK AO2 SNB29 SLP327 P0000 T11001139

TAF KBMG
Valid from the 20 at 02:00 until the 21 at 00:00 UTC


200216Z 2002/2024 31006G15KT P6SM OVC016
TEMPO 2002/2005 -SN
FM200500 31008KT P6SM BKN080
FM202300 35005KT P6SM BKN080 AMD LTD TO CLD VIS AND WIND TIL 201400



MET'MAP, your aeronautical weather chart ! - Copyright ORBIFLY December 2007 - Disclaimer

ORBIFLY MET'MAP TEAM :

Programming & Development : Alexandra Zaïnal
Concept & original design : Baudouin d'Aumeries
Assistance for programming : Marc-Olivier Méhu
Technical & hardware support : Manuel Goepfert

Contact : metmap@orbifly.com




SOURCES & CREDITS :

   NOAA       Earth
Advisory